createdAt,value
2017-03-21T00:01:08.696Z,9.61
2017-03-21T00:02:31.124Z,9.64
2017-03-21T00:03:53.277Z,9.57
2017-03-21T00:05:15.743Z,9.57
2017-03-21T00:06:37.878Z,9.56
2017-03-21T00:08:00.798Z,9.57
2017-03-21T00:09:23.357Z,9.58
2017-03-21T00:10:45.867Z,9.6
2017-03-21T00:12:07.691Z,9.6
2017-03-21T00:13:30.131Z,9.53
2017-03-21T00:14:51.685Z,9.61
2017-03-21T00:16:13.836Z,9.53
2017-03-21T00:17:36.444Z,9.57
2017-03-21T00:18:59.165Z,9.57
2017-03-21T00:20:21.017Z,9.54
2017-03-21T00:21:42.664Z,9.57
2017-03-21T00:23:04.809Z,9.51
2017-03-21T00:24:27.066Z,9.53
2017-03-21T00:25:49.585Z,9.47
2017-03-21T00:27:11.417Z,9.47
2017-03-21T00:28:33.349Z,9.5
2017-03-21T00:29:55.526Z,9.48
2017-03-21T00:31:17.765Z,9.51
2017-03-21T00:32:39.897Z,9.47
2017-03-21T00:34:01.761Z,9.43
2017-03-21T00:35:23.837Z,9.42
2017-03-21T00:36:46.346Z,9.42
2017-03-21T00:38:08.167Z,9.42
2017-03-21T00:39:29.986Z,9.46
2017-03-21T00:40:52.435Z,9.46
2017-03-21T00:42:13.938Z,9.46
2017-03-21T00:43:36.050Z,9.36
2017-03-21T00:44:58.198Z,9.42
2017-03-21T00:46:21.057Z,9.36
2017-03-21T00:47:43.199Z,9.39
2017-03-21T00:49:05.696Z,9.39
2017-03-21T00:50:27.509Z,9.39
2017-03-21T00:51:49.989Z,9.24
2017-03-21T00:53:12.416Z,9.28
2017-03-21T00:54:34.235Z,9.32
2017-03-21T00:55:56.705Z,9.38
2017-03-21T00:57:18.504Z,9.32
2017-03-21T00:58:40.400Z,9.39
2017-03-21T01:00:02.633Z,9.4
2017-03-21T01:01:24.458Z,9.31
2017-03-21T01:02:46.845Z,9.31
2017-03-21T01:04:09.285Z,9.28
2017-03-21T01:05:31.106Z,9.24
2017-03-21T01:06:53.313Z,9.31
2017-03-21T01:08:15.566Z,9.31
2017-03-21T01:09:37.685Z,9.31
2017-03-21T01:11:00.275Z,9.35
2017-03-21T01:12:22.517Z,9.32
2017-03-21T01:13:44.969Z,9.24
2017-03-21T01:15:07.470Z,9.31
2017-03-21T01:16:29.338Z,9.26
2017-03-21T01:17:51.465Z,9.31
2017-03-21T01:19:14.056Z,9.24
2017-03-21T01:20:35.257Z,9.24
2017-03-21T01:21:57.175Z,9.21
2017-03-21T01:23:18.985Z,9.29
2017-03-21T01:24:41.067Z,9.23
2017-03-21T01:26:03.212Z,9.1
2017-03-21T01:27:25.442Z,9.1
2017-03-21T01:28:47.251Z,9.05
2017-03-21T01:30:09.951Z,9.08
2017-03-21T01:31:31.477Z,8.91
2017-03-21T01:32:53.599Z,8.94
2017-03-21T01:34:16.126Z,8.81
2017-03-21T01:35:38.551Z,8.73
2017-03-21T01:37:00.394Z,8.8
2017-03-21T01:38:22.525Z,8.83
2017-03-21T01:39:44.355Z,8.81
2017-03-21T01:41:06.344Z,8.76
2017-03-21T01:42:28.465Z,8.81
2017-03-21T01:43:50.296Z,8.84
2017-03-21T01:45:12.159Z,8.94
2017-03-21T01:46:34.275Z,8.84
2017-03-21T01:47:56.543Z,8.92
2017-03-21T01:49:18.366Z,8.98
2017-03-21T01:50:40.820Z,8.91
2017-03-21T01:52:03.934Z,8.98
2017-03-21T01:53:26.116Z,8.92
2017-03-21T01:54:48.795Z,8.94
2017-03-21T01:56:10.936Z,8.92
2017-03-21T01:57:32.757Z,8.89
2017-03-21T01:58:55.227Z,8.95
2017-03-21T02:00:17.450Z,8.95
2017-03-21T02:01:39.577Z,8.98
2017-03-21T02:03:02.325Z,8.96
2017-03-21T02:04:23.834Z,8.94
2017-03-21T02:05:45.657Z,8.89
2017-03-21T02:07:07.475Z,8.89
2017-03-21T02:08:29.669Z,8.99
2017-03-21T02:09:52.104Z,8.99
2017-03-21T02:11:14.332Z,8.89
2017-03-21T02:12:36.176Z,8.94
2017-03-21T02:13:58.945Z,8.98
2017-03-21T02:15:20.578Z,9.01
2017-03-21T02:16:43.128Z,8.87
2017-03-21T02:18:05.278Z,8.96
2017-03-21T02:19:27.656Z,8.91
2017-03-21T02:20:49.505Z,8.99
2017-03-21T02:22:11.704Z,8.94
2017-03-21T02:23:33.778Z,8.8
2017-03-21T02:24:56.182Z,8.8
2017-03-21T02:26:17.930Z,8.77
2017-03-21T02:27:39.465Z,8.81
2017-03-21T02:29:01.013Z,8.7
2017-03-21T02:30:23.504Z,8.68
2017-03-21T02:31:45.707Z,8.58
2017-03-21T02:33:07.531Z,8.45
2017-03-21T02:34:29.047Z,8.33
2017-03-21T02:35:51.798Z,8.29
2017-03-21T02:37:14.243Z,8.2
2017-03-21T02:38:36.075Z,7.95
2017-03-21T02:39:57.908Z,7.93
2017-03-21T02:41:20.349Z,7.89
2017-03-21T02:42:42.798Z,7.71
2017-03-21T02:44:05.354Z,7.64
2017-03-21T02:45:27.884Z,7.49
2017-03-21T02:46:50.286Z,7.55
2017-03-21T02:48:12.106Z,7.43
2017-03-21T02:49:34.128Z,7.35
2017-03-21T02:50:55.953Z,7.28
2017-03-21T02:52:18.439Z,7.21
2017-03-21T02:53:40.587Z,7.17
2017-03-21T02:55:02.530Z,7.17
2017-03-21T02:56:24.134Z,7.17
2017-03-21T02:57:46.511Z,7.25
2017-03-21T02:59:08.662Z,7.32
2017-03-21T03:00:30.526Z,7.39
2017-03-21T03:01:52.397Z,7.53
2017-03-21T03:03:14.517Z,7.58
2017-03-21T03:04:36.747Z,7.57
2017-03-21T03:05:58.956Z,7.61
2017-03-21T03:07:21.218Z,7.72
2017-03-21T03:08:43.665Z,7.69
2017-03-21T03:10:05.167Z,7.63
2017-03-21T03:11:27.688Z,7.74
2017-03-21T03:12:49.829Z,7.68
2017-03-21T03:14:11.628Z,7.83
2017-03-21T03:15:33.778Z,7.83
2017-03-21T03:16:55.285Z,7.83
2017-03-21T03:18:17.411Z,7.82
2017-03-21T03:19:39.847Z,7.82
2017-03-21T03:21:02.290Z,7.86
2017-03-21T03:22:24.167Z,7.79
2017-03-21T03:23:46.322Z,7.8
2017-03-21T03:25:09.115Z,7.85
2017-03-21T03:26:30.935Z,7.71
2017-03-21T03:27:52.754Z,7.74
2017-03-21T03:29:14.575Z,7.61
2017-03-21T03:30:36.704Z,7.64
2017-03-21T03:31:58.508Z,7.67
2017-03-21T03:33:20.047Z,7.61
2017-03-21T03:34:41.985Z,7.69
2017-03-21T03:36:04.487Z,7.79
2017-03-21T03:37:26.017Z,7.79
2017-03-21T03:38:48.201Z,7.79
2017-03-21T03:40:10.344Z,7.57
2017-03-21T03:41:32.609Z,7.57
2017-03-21T03:42:54.548Z,7.64
2017-03-21T03:44:17.223Z,7.72
2017-03-21T03:45:39.090Z,7.69
2017-03-21T03:47:00.942Z,7.82
2017-03-21T03:48:23.102Z,7.82
2017-03-21T03:49:44.923Z,7.89
2017-03-21T03:51:06.757Z,7.9
2017-03-21T03:52:28.927Z,7.9
2017-03-21T03:53:50.815Z,7.98
2017-03-21T03:55:12.945Z,8.05
2017-03-21T03:56:34.540Z,8
2017-03-21T03:57:57.040Z,7.95
2017-03-21T03:59:19.506Z,7.92
2017-03-21T04:00:41.218Z,7.83
2017-03-21T04:02:03.356Z,7.75
2017-03-21T04:03:25.098Z,7.69
2017-03-21T04:04:47.539Z,7.57
2017-03-21T04:06:10.005Z,7.61
2017-03-21T04:07:32.458Z,7.58
2017-03-21T04:08:55.065Z,7.48
2017-03-21T04:10:17.319Z,7.31
2017-03-21T04:12:11.435Z,7.31
2017-03-21T04:13:33.418Z,7.24
2017-03-21T04:14:55.826Z,7.25
2017-03-21T04:16:17.995Z,7.2
2017-03-21T04:18:11.806Z,7.3
2017-03-21T04:19:34.237Z,7.34
2017-03-21T04:20:56.385Z,7.35
2017-03-21T04:22:18.538Z,7.27
2017-03-21T04:23:40.932Z,7.28
2017-03-21T04:25:03.309Z,7.32
2017-03-21T04:26:25.345Z,7.23
2017-03-21T04:27:47.160Z,7.27
2017-03-21T04:29:09.612Z,7.31
2017-03-21T04:30:32.258Z,7.21
2017-03-21T04:31:54.698Z,7.07
2017-03-21T04:33:16.216Z,7.13
2017-03-21T04:34:38.683Z,7.13
2017-03-21T04:36:00.800Z,7.21
2017-03-21T04:37:23.009Z,7.1
2017-03-21T04:38:44.512Z,7.03
2017-03-21T04:40:06.661Z,7.15
2017-03-21T04:41:29.379Z,6.97
2017-03-21T04:42:51.844Z,6.95
2017-03-21T04:44:13.672Z,6.94
2017-03-21T04:45:36.090Z,6.85
2017-03-21T04:47:30.137Z,6.87
2017-03-21T04:48:52.618Z,6.71
2017-03-21T04:50:14.748Z,6.73
2017-03-21T04:51:36.264Z,6.59
2017-03-21T04:52:58.688Z,6.64
2017-03-21T04:54:20.569Z,6.56
2017-03-21T04:55:42.709Z,6.51
2017-03-21T04:57:04.879Z,6.55
2017-03-21T04:58:26.876Z,6.55
2017-03-21T04:59:49.337Z,6.59
2017-03-21T05:01:11.656Z,6.52
2017-03-21T05:02:32.830Z,6.56
2017-03-21T05:03:55.224Z,6.49
2017-03-21T05:05:17.273Z,6.56
2017-03-21T05:06:39.143Z,6.55
2017-03-21T05:08:01.263Z,6.49
2017-03-21T05:09:24.181Z,6.4
2017-03-21T05:10:46.053Z,6.37
2017-03-21T05:12:08.204Z,6.36
2017-03-21T05:13:30.373Z,6.33
2017-03-21T05:14:52.866Z,6.4
2017-03-21T05:16:13.746Z,6.41
2017-03-21T05:17:35.785Z,6.4
2017-03-21T05:18:57.965Z,6.37
2017-03-21T05:20:19.789Z,6.33
2017-03-21T05:21:42.173Z,6.37
2017-03-21T05:23:04.312Z,6.43
2017-03-21T05:24:26.746Z,6.36
2017-03-21T05:25:49.328Z,6.33
2017-03-21T05:27:11.790Z,6.22
2017-03-21T05:28:33.655Z,6.25
2017-03-21T05:29:55.853Z,6.27
2017-03-21T05:31:18.345Z,6.27
2017-03-21T05:32:40.155Z,6.19
2017-03-21T05:34:02.161Z,6.17
2017-03-21T05:35:24.583Z,6.17
2017-03-21T05:36:46.947Z,6.18
2017-03-21T05:38:09.091Z,6.11
2017-03-21T05:39:31.265Z,6.18
2017-03-21T05:40:53.091Z,6.25
2017-03-21T05:42:15.481Z,6.25
2017-03-21T05:43:37.310Z,6.28
2017-03-21T05:44:59.165Z,6.33
2017-03-21T05:46:21.402Z,6.28
2017-03-21T05:47:44.184Z,6.28
2017-03-21T05:49:06.335Z,6.3
2017-03-21T05:50:28.806Z,6.37
2017-03-21T05:51:51.318Z,6.38
2017-03-21T05:53:13.404Z,6.34
2017-03-21T05:54:35.471Z,6.44
2017-03-21T05:55:57.906Z,6.55
2017-03-21T05:57:20.042Z,6.55
2017-03-21T05:58:42.652Z,6.56
2017-03-21T06:00:04.794Z,6.61
2017-03-21T06:01:26.943Z,6.56
2017-03-21T06:02:49.428Z,6.52
2017-03-21T06:04:43.938Z,6.59
2017-03-21T06:06:06.112Z,6.55
2017-03-21T06:07:27.946Z,6.7
2017-03-21T06:08:50.403Z,6.73
2017-03-21T06:10:12.561Z,6.89
2017-03-21T06:11:35.010Z,7.37
2017-03-21T06:12:56.839Z,7.9
2017-03-21T06:14:18.992Z,8.34
2017-03-21T06:15:41.116Z,8.48
2017-03-21T06:17:03.100Z,8.68
2017-03-21T06:18:24.958Z,9.18
2017-03-21T06:19:47.559Z,9.74
2017-03-21T06:21:09.737Z,10.38
2017-03-21T06:22:32.197Z,10.78
2017-03-21T06:23:54.378Z,11.25
2017-03-21T06:25:17.087Z,11.36
2017-03-21T06:26:39.234Z,11.6
2017-03-21T06:28:33.722Z,11.99
2017-03-21T06:29:56.253Z,12.14
2017-03-21T06:31:18.694Z,11.99
2017-03-21T06:32:41.223Z,11.98
2017-03-21T06:34:02.747Z,11.96
2017-03-21T06:35:24.935Z,11.47
2017-03-21T06:36:46.795Z,11.35
2017-03-21T06:38:09.234Z,11.36
2017-03-21T06:39:31.829Z,11.06
2017-03-21T06:40:53.936Z,11
2017-03-21T06:42:16.157Z,10.74
2017-03-21T06:43:38.309Z,10.44
2017-03-21T06:45:00.479Z,10.29
2017-03-21T06:46:22.880Z,10.09
2017-03-21T06:47:44.694Z,9.86
2017-03-21T06:49:07.372Z,9.89
2017-03-21T06:50:29.245Z,9.76
2017-03-21T06:51:52.255Z,10.01
2017-03-21T06:53:14.769Z,10.59
2017-03-21T06:54:36.629Z,10.86
2017-03-21T06:55:59.076Z,11.02
2017-03-21T06:57:21.831Z,11.36
2017-03-21T06:58:43.999Z,12.28
2017-03-21T07:00:06.510Z,12.82
2017-03-21T07:01:28.652Z,13.33
2017-03-21T07:02:50.808Z,13.67
2017-03-21T07:04:12.633Z,13.67
2017-03-21T07:05:34.929Z,13.32
2017-03-21T07:06:56.786Z,13.19
2017-03-21T07:08:19.204Z,13.36
2017-03-21T07:09:41.090Z,13.55
2017-03-21T07:11:03.306Z,13.78
2017-03-21T07:12:25.246Z,14.1
2017-03-21T07:13:48.139Z,14.06
2017-03-21T07:15:09.992Z,13.66
2017-03-21T07:16:32.109Z,13.32
2017-03-21T07:17:54.353Z,12.97
2017-03-21T07:19:16.230Z,12.53
2017-03-21T07:20:38.134Z,12.27
2017-03-21T07:22:00.596Z,12.12
2017-03-21T07:23:22.751Z,11.82
2017-03-21T07:24:44.934Z,11.47
2017-03-21T07:26:07.381Z,11.07
2017-03-21T07:27:29.329Z,10.85
2017-03-21T07:28:51.483Z,10.74
2017-03-21T07:30:13.611Z,10.7
2017-03-21T07:31:36.147Z,10.68
2017-03-21T07:32:58.316Z,10.61
2017-03-21T07:34:19.973Z,10.41
2017-03-21T07:35:42.734Z,10.47
2017-03-21T07:37:05.205Z,10.55
2017-03-21T07:38:27.389Z,10.76
2017-03-21T07:39:49.565Z,11.72
2017-03-21T07:41:12.277Z,12.28
2017-03-21T07:42:34.124Z,12.32
2017-03-21T07:43:56.027Z,12.12
2017-03-21T07:45:18.516Z,11.96
2017-03-21T07:46:41.262Z,11.75
2017-03-21T07:48:03.397Z,11.72
2017-03-21T07:49:25.638Z,11.8
2017-03-21T07:50:47.903Z,12.02
2017-03-21T07:52:10.011Z,12.23
2017-03-21T07:53:32.185Z,12.38
2017-03-21T07:54:54.647Z,12.39
2017-03-21T07:56:17.177Z,12.14
2017-03-21T07:57:39.284Z,11.98
2017-03-21T07:59:01.436Z,11.8
2017-03-21T08:00:23.267Z,11.7
2017-03-21T08:01:45.746Z,11.75
2017-03-21T08:03:07.915Z,12.02
2017-03-21T08:04:30.362Z,12.04
2017-03-21T08:05:52.630Z,12.12
2017-03-21T08:07:14.795Z,11.86
2017-03-21T08:08:37.259Z,11.62
2017-03-21T08:09:58.796Z,11.36
2017-03-21T08:11:20.955Z,11.19
2017-03-21T08:12:43.402Z,11.29
2017-03-21T08:14:05.887Z,11.36
2017-03-21T08:15:28.415Z,11.39
2017-03-21T08:16:50.863Z,11.32
2017-03-21T08:18:13.325Z,11.24
2017-03-21T08:19:36.066Z,11.15
2017-03-21T08:20:58.229Z,11.25
2017-03-21T08:22:20.045Z,11.4
2017-03-21T08:23:42.084Z,11.51
2017-03-21T08:25:04.819Z,11.61
2017-03-21T08:26:26.674Z,11.37
2017-03-21T08:27:48.194Z,11.35
2017-03-21T08:29:10.445Z,11.27
2017-03-21T08:30:33.180Z,11.33
2017-03-21T08:31:55.514Z,11.35
2017-03-21T08:33:18.007Z,11.27
2017-03-21T08:34:40.467Z,11.39
2017-03-21T08:36:03.123Z,11.54
2017-03-21T08:37:25.256Z,11.73
2017-03-21T08:38:47.428Z,11.85
2017-03-21T08:40:09.295Z,12.01
2017-03-21T08:41:31.930Z,11.73
2017-03-21T08:42:54.138Z,11.7
2017-03-21T08:44:16.618Z,11.96
2017-03-21T08:45:39.217Z,11.9
2017-03-21T08:47:01.463Z,11.86
2017-03-21T08:48:23.923Z,12.01
2017-03-21T08:49:46.412Z,12.04
2017-03-21T08:51:08.869Z,12.13
2017-03-21T08:52:31.394Z,12.24
2017-03-21T08:53:53.211Z,12.31
2017-03-21T08:55:15.073Z,12.17
2017-03-21T08:56:37.524Z,12.02
2017-03-21T08:58:00.442Z,11.98
2017-03-21T08:59:22.592Z,12.1
2017-03-21T09:00:45.077Z,12.1
2017-03-21T09:02:07.746Z,12.37
2017-03-21T09:03:30.198Z,12.52
2017-03-21T09:04:52.703Z,12.75
2017-03-21T09:06:14.524Z,12.86
2017-03-21T09:07:36.554Z,12.93
2017-03-21T09:08:59.392Z,13.08
2017-03-21T09:10:22.003Z,13.05
2017-03-21T09:11:44.167Z,13.17
2017-03-21T09:13:06.521Z,13.01
2017-03-21T09:14:28.956Z,12.96
2017-03-21T09:15:51.422Z,12.93
2017-03-21T09:17:13.397Z,13.19
2017-03-21T09:18:35.278Z,13.38
2017-03-21T09:19:58.136Z,13.44
2017-03-21T09:21:20.400Z,13.51
2017-03-21T09:22:42.866Z,13.39
2017-03-21T09:24:05.442Z,13.46
2017-03-21T09:25:28.066Z,13.46
2017-03-21T09:26:50.625Z,13.57
2017-03-21T09:28:12.819Z,13.51
2017-03-21T09:29:34.995Z,13.38
2017-03-21T09:30:57.806Z,13.39
2017-03-21T09:32:19.652Z,13.33
2017-03-21T09:33:42.040Z,13.08
2017-03-21T09:35:04.208Z,13.14
2017-03-21T09:36:26.639Z,13.25
2017-03-21T09:37:48.610Z,13.2
2017-03-21T09:39:11.080Z,13.14
2017-03-21T09:40:33.603Z,13.26
2017-03-21T09:41:56.165Z,13.33
2017-03-21T09:43:18.441Z,13.54
2017-03-21T09:44:40.583Z,13.97
2017-03-21T09:46:02.717Z,14.17
2017-03-21T09:47:24.823Z,14.02
2017-03-21T09:48:47.273Z,13.89
2017-03-21T09:50:09.429Z,13.91
2017-03-21T09:52:03.558Z,14.24
2017-03-21T09:53:25.656Z,14.32
2017-03-21T09:54:47.873Z,14.42
2017-03-21T09:56:10.036Z,14.36
2017-03-21T09:57:32.677Z,14.09
2017-03-21T09:58:54.577Z,13.51
2017-03-21T10:00:17.035Z,13.17
2017-03-21T10:01:38.845Z,12.59
2017-03-21T10:03:00.924Z,12.14
2017-03-21T10:04:23.078Z,11.73
2017-03-21T10:05:44.920Z,11.73
2017-03-21T10:07:07.082Z,11.75
2017-03-21T10:08:29.894Z,11.78
2017-03-21T10:09:52.021Z,11.91
2017-03-21T10:11:14.187Z,11.99
2017-03-21T10:12:36.365Z,12.07
2017-03-21T10:13:58.848Z,12.2
2017-03-21T10:15:21.307Z,12.29
2017-03-21T10:16:43.219Z,12.32
2017-03-21T10:18:05.765Z,12.42
2017-03-21T10:19:28.147Z,12.41
2017-03-21T10:20:50.623Z,12.39
2017-03-21T10:22:12.974Z,12.47
2017-03-21T10:23:34.842Z,12.56
2017-03-21T10:24:57.165Z,12.31
2017-03-21T10:26:19.608Z,12.2
2017-03-21T10:27:41.751Z,11.98
2017-03-21T10:29:03.577Z,11.88
2017-03-21T10:30:26.326Z,11.76
2017-03-21T10:31:48.455Z,11.7
2017-03-21T10:33:10.914Z,11.8
2017-03-21T10:34:33.364Z,12.04
2017-03-21T10:35:56.126Z,12.04
2017-03-21T10:37:17.950Z,12.02
2017-03-21T10:38:39.827Z,12.02
2017-03-21T10:40:01.625Z,12.23
2017-03-21T10:41:24.566Z,12.41
2017-03-21T10:42:47.109Z,12.68
2017-03-21T10:44:10.154Z,13.07
2017-03-21T10:45:31.691Z,13.25
2017-03-21T10:46:53.759Z,13.32
2017-03-21T10:48:15.649Z,13.38
2017-03-21T10:49:38.227Z,13.39
2017-03-21T10:51:00.548Z,13.48
2017-03-21T10:52:23.378Z,13.79
2017-03-21T10:53:45.877Z,13.88
2017-03-21T10:55:08.244Z,13.73
2017-03-21T10:56:30.466Z,13.55
2017-03-21T10:57:52.918Z,13.3
2017-03-21T10:59:15.104Z,12.86
2017-03-21T11:00:36.972Z,12.49
2017-03-21T11:01:58.485Z,12.27
2017-03-21T11:03:20.557Z,12.02
2017-03-21T11:04:42.722Z,11.55
2017-03-21T11:06:04.546Z,10.86
2017-03-21T11:07:26.775Z,9.65
2017-03-21T11:08:48.924Z,9.05
2017-03-21T11:10:11.056Z,8.8
2017-03-21T11:11:33.513Z,8.56
2017-03-21T11:12:55.345Z,8.56
2017-03-21T11:14:17.744Z,8.4
2017-03-21T11:15:40.302Z,8.45
2017-03-21T11:17:02.777Z,8.48
2017-03-21T11:18:25.215Z,8.58
2017-03-21T11:19:47.953Z,8.7
2017-03-21T11:21:10.097Z,8.94
2017-03-21T11:22:32.245Z,9.11
2017-03-21T11:23:54.390Z,9.32
2017-03-21T11:25:16.852Z,9.68
2017-03-21T11:26:38.676Z,9.86
2017-03-21T11:28:00.501Z,10.15
2017-03-21T11:29:22.651Z,10.42
2017-03-21T11:30:44.458Z,10.42
2017-03-21T11:32:06.934Z,10.38
2017-03-21T11:33:29.073Z,10.59
2017-03-21T11:34:50.954Z,10.67
2017-03-21T11:36:13.416Z,10.85
2017-03-21T11:37:35.714Z,11
2017-03-21T11:38:58.160Z,11.25
2017-03-21T11:40:20.357Z,11.43
2017-03-21T11:41:42.118Z,11.49
2017-03-21T11:43:04.799Z,11.52
2017-03-21T11:44:27.367Z,11.54
2017-03-21T11:45:49.525Z,11.47
2017-03-21T11:47:12.506Z,11.54
2017-03-21T11:48:34.978Z,11.42
2017-03-21T11:49:57.714Z,11.36
2017-03-21T11:51:20.218Z,11.28
2017-03-21T11:52:42.624Z,11.21
2017-03-21T11:54:04.447Z,11.14
2017-03-21T11:55:26.604Z,11.18
2017-03-21T11:56:49.067Z,11.19
2017-03-21T11:58:11.285Z,11.22
2017-03-21T11:59:33.758Z,11.22
2017-03-21T12:00:55.911Z,11.19
2017-03-21T12:02:18.465Z,11.19
2017-03-21T12:03:41.206Z,11.22
2017-03-21T12:05:03.054Z,11.29
2017-03-21T12:06:25.573Z,11.35
2017-03-21T12:07:48.159Z,11.42
2017-03-21T12:09:10.930Z,11.44
2017-03-21T12:10:33.109Z,11.6
2017-03-21T12:11:55.545Z,11.62
2017-03-21T12:13:17.680Z,11.65
2017-03-21T12:14:40.061Z,11.78
2017-03-21T12:16:02.608Z,11.61
2017-03-21T12:17:24.850Z,11.58
2017-03-21T12:18:47.377Z,11.82
2017-03-21T12:20:09.904Z,11.88
2017-03-21T12:21:32.050Z,12.01
2017-03-21T12:22:53.896Z,11.86
2017-03-21T12:24:15.830Z,11.76
2017-03-21T12:25:38.304Z,11.64
2017-03-21T12:27:32.448Z,11.64
2017-03-21T12:28:54.598Z,11.79
2017-03-21T12:30:17.064Z,11.88
2017-03-21T12:31:39.238Z,11.99
2017-03-21T12:33:01.394Z,11.98
2017-03-21T12:34:23.709Z,11.91
2017-03-21T12:35:46.479Z,11.88
2017-03-21T12:37:08.994Z,12.04
2017-03-21T12:38:31.138Z,12.2
2017-03-21T12:39:53.634Z,12.47
2017-03-21T12:41:16.374Z,12.7
2017-03-21T12:42:38.820Z,12.72
2017-03-21T12:44:00.709Z,12.57
2017-03-21T12:45:23.341Z,12.71
2017-03-21T12:46:45.163Z,12.75
2017-03-21T12:48:06.664Z,12.87
2017-03-21T12:49:28.308Z,12.93
2017-03-21T12:50:50.786Z,13.04
2017-03-21T12:52:13.547Z,13.14
2017-03-21T12:53:35.844Z,13.3
2017-03-21T12:54:57.926Z,13.05
2017-03-21T12:56:20.103Z,12.72
2017-03-21T12:57:42.894Z,12.38
2017-03-21T12:59:05.154Z,11.88
2017-03-21T13:00:27.475Z,11.72
2017-03-21T13:01:50.037Z,11.73
2017-03-21T13:03:12.529Z,11.67
2017-03-21T13:04:35.034Z,11.72
2017-03-21T13:05:56.826Z,11.82
2017-03-21T13:07:19.187Z,11.83
2017-03-21T13:08:41.973Z,11.88
2017-03-21T13:10:04.250Z,11.76
2017-03-21T13:11:26.544Z,11.57
2017-03-21T13:12:48.737Z,11.36
2017-03-21T13:14:11.508Z,11.29
2017-03-21T13:15:34.126Z,11.19
2017-03-21T13:16:56.601Z,11.27
2017-03-21T13:18:18.750Z,11.35
2017-03-21T13:19:41.203Z,11.43
2017-03-21T13:21:03.754Z,11.67
2017-03-21T13:22:25.581Z,11.69
2017-03-21T13:23:47.792Z,11.85
2017-03-21T13:25:10.215Z,12.01
2017-03-21T13:26:32.398Z,12.1
2017-03-21T13:27:54.849Z,12.13
2017-03-21T13:29:17.307Z,12.24
2017-03-21T13:30:40.221Z,12.32
2017-03-21T13:32:02.464Z,12.52
2017-03-21T13:33:24.818Z,12.52
2017-03-21T13:34:46.971Z,12.52
2017-03-21T13:36:09.439Z,12.62
2017-03-21T13:37:31.945Z,12.74
2017-03-21T13:38:54.080Z,12.56
2017-03-21T13:40:16.615Z,12.16
2017-03-21T13:41:39.063Z,11.64
2017-03-21T13:43:01.444Z,11.54
2017-03-21T13:44:23.612Z,11.54
2017-03-21T13:45:46.075Z,11.79
2017-03-21T13:47:08.833Z,11.65
2017-03-21T13:48:31.218Z,11.64
2017-03-21T13:49:53.410Z,11.79
2017-03-21T13:51:15.802Z,11.76
2017-03-21T13:52:38.631Z,11.76
2017-03-21T13:54:01.132Z,11.65
2017-03-21T13:55:23.616Z,11.62
2017-03-21T13:56:45.784Z,11.79
2017-03-21T13:58:08.525Z,11.75
2017-03-21T13:59:30.989Z,11.72
2017-03-21T14:00:53.049Z,11.76
2017-03-21T14:02:15.222Z,11.86
2017-03-21T14:03:37.395Z,11.78
2017-03-21T14:05:00.036Z,11.72
2017-03-21T14:06:22.531Z,11.65
2017-03-21T14:08:16.997Z,11.72
2017-03-21T14:09:39.922Z,11.62
2017-03-21T14:11:02.069Z,11.62
2017-03-21T14:12:24.206Z,11.76
2017-03-21T14:13:46.341Z,11.72
2017-03-21T14:15:08.527Z,11.73
2017-03-21T14:16:30.354Z,11.94
2017-03-21T14:17:52.847Z,11.96
2017-03-21T14:19:15.246Z,11.98
2017-03-21T14:20:37.389Z,11.85
2017-03-21T14:21:59.877Z,11.96
2017-03-21T14:23:22.059Z,12.01
2017-03-21T14:24:44.454Z,12.05
2017-03-21T14:26:07.005Z,12.23
2017-03-21T14:27:29.157Z,12.28
2017-03-21T14:28:51.317Z,12.23
2017-03-21T14:30:42.941Z,12.01
2017-03-21T14:32:05.615Z,11.91
2017-03-21T14:33:27.786Z,11.98
2017-03-21T14:34:49.349Z,11.9
2017-03-21T14:36:11.757Z,11.99
2017-03-21T14:37:34.016Z,11.9
2017-03-21T14:38:56.169Z,11.88
2017-03-21T14:40:18.668Z,11.86
2017-03-21T14:41:41.056Z,11.7
2017-03-21T14:43:03.524Z,11.76
2017-03-21T14:44:25.988Z,11.79
2017-03-21T14:45:48.456Z,11.73
2017-03-21T14:47:10.851Z,11.61
2017-03-21T14:48:33.004Z,11.44
2017-03-21T14:49:55.356Z,11.37
2017-03-21T14:51:17.531Z,11.37
2017-03-21T14:52:39.948Z,11.32
2017-03-21T14:54:02.178Z,11.27
2017-03-21T14:55:24.326Z,11.29
2017-03-21T14:56:47.144Z,11.18
2017-03-21T14:58:09.299Z,10.96
2017-03-21T14:59:31.795Z,10.79
2017-03-21T15:00:54.267Z,10.64
2017-03-21T15:02:16.429Z,10.59
2017-03-21T15:03:39.315Z,10.68
2017-03-21T15:05:01.486Z,10.63
2017-03-21T15:06:23.366Z,10.44
2017-03-21T15:07:45.533Z,10.26
2017-03-21T15:09:07.926Z,10.18
2017-03-21T15:10:30.686Z,10.09
2017-03-21T15:11:52.871Z,9.99
2017-03-21T15:13:14.760Z,9.93
2017-03-21T15:14:36.986Z,9.89
2017-03-21T15:15:59.486Z,9.76
2017-03-21T15:17:21.658Z,9.74
2017-03-21T15:18:43.506Z,9.74
2017-03-21T15:20:06.243Z,9.61
2017-03-21T15:21:28.835Z,9.65
2017-03-21T15:22:51.364Z,9.61
2017-03-21T15:24:13.511Z,9.68
2017-03-21T15:25:36.273Z,9.72
2017-03-21T15:26:58.780Z,9.83
2017-03-21T15:28:20.730Z,9.87
2017-03-21T15:29:42.595Z,10.05
2017-03-21T15:31:04.740Z,9.97
2017-03-21T15:32:27.226Z,9.9
2017-03-21T15:33:49.390Z,9.9
2017-03-21T15:35:10.922Z,9.84
2017-03-21T15:36:33.577Z,9.89
2017-03-21T15:37:56.142Z,9.84
2017-03-21T15:39:18.345Z,9.94
2017-03-21T15:40:40.616Z,9.91
2017-03-21T15:42:03.394Z,10.02
2017-03-21T15:43:25.591Z,10.01
2017-03-21T15:44:48.259Z,10.02
2017-03-21T15:46:10.746Z,9.89
2017-03-21T15:47:33.545Z,9.89
2017-03-21T15:48:55.793Z,9.87
2017-03-21T15:50:18.192Z,9.81
2017-03-21T15:51:40.675Z,9.9
2017-03-21T15:53:02.811Z,9.93
2017-03-21T15:54:24.769Z,9.93
2017-03-21T15:55:47.351Z,9.87
2017-03-21T15:57:09.492Z,9.79
2017-03-21T15:58:31.570Z,9.84
2017-03-21T15:59:54.047Z,9.76
2017-03-21T16:01:16.236Z,9.81
2017-03-21T16:02:38.748Z,9.71
2017-03-21T16:04:01.669Z,9.75
2017-03-21T16:05:23.577Z,9.75
2017-03-21T16:06:46.086Z,9.74
2017-03-21T16:08:08.304Z,9.74
2017-03-21T16:09:31.087Z,9.71
2017-03-21T16:10:52.949Z,9.74
2017-03-21T16:12:15.129Z,9.76
2017-03-21T16:13:37.284Z,9.71
2017-03-21T16:14:59.076Z,9.69
2017-03-21T16:16:21.570Z,9.65
2017-03-21T16:17:43.745Z,9.6
2017-03-21T16:19:07.268Z,9.58
2017-03-21T16:20:30.057Z,9.6
2017-03-21T16:21:52.258Z,9.43
2017-03-21T16:23:14.788Z,9.43
2017-03-21T16:24:36.699Z,9.43
2017-03-21T16:25:59.213Z,9.39
2017-03-21T16:27:21.388Z,9.31
2017-03-21T16:28:43.560Z,9.31
2017-03-21T16:30:06.070Z,9.24
2017-03-21T16:31:28.232Z,9.23
2017-03-21T16:32:50.737Z,9.14
2017-03-21T16:34:12.285Z,9.15
2017-03-21T16:35:33.909Z,9.15
2017-03-21T16:36:56.506Z,8.99
2017-03-21T16:38:18.692Z,9.05
2017-03-21T16:39:40.864Z,9.02
2017-03-21T16:41:02.569Z,8.96
2017-03-21T16:42:25.424Z,8.96
2017-03-21T16:43:47.275Z,8.98
2017-03-21T16:45:09.444Z,8.95
2017-03-21T16:46:31.477Z,8.77
2017-03-21T16:47:53.889Z,8.77
2017-03-21T16:49:15.753Z,8.84
2017-03-21T16:50:38.476Z,8.74
2017-03-21T16:52:00.720Z,8.66
2017-03-21T16:53:23.521Z,8.59
2017-03-21T16:54:46.174Z,8.7
2017-03-21T16:56:08.430Z,8.62
2017-03-21T16:57:30.661Z,8.53
2017-03-21T16:58:53.198Z,8.47
2017-03-21T17:00:15.028Z,8.47
2017-03-21T17:01:37.208Z,8.5
2017-03-21T17:02:59.423Z,8.43
2017-03-21T17:04:21.905Z,8.37
2017-03-21T17:05:44.107Z,8.38
2017-03-21T17:07:06.277Z,8.34
2017-03-21T17:08:28.674Z,8.19
2017-03-21T17:09:51.543Z,8.23
2017-03-21T17:11:13.758Z,8.18
2017-03-21T17:12:35.922Z,8.25
2017-03-21T17:13:58.400Z,8.11
2017-03-21T17:15:20.257Z,8.22
2017-03-21T17:16:42.873Z,8.07
2017-03-21T17:18:05.103Z,8.18
2017-03-21T17:19:26.643Z,8.04
2017-03-21T17:20:48.949Z,8.02
2017-03-21T17:22:11.651Z,7.97
2017-03-21T17:23:33.532Z,7.83
2017-03-21T17:24:55.748Z,7.86
2017-03-21T17:26:17.937Z,7.69
2017-03-21T17:27:39.169Z,7.68
2017-03-21T17:29:01.031Z,7.64
2017-03-21T17:30:23.028Z,7.63
2017-03-21T17:31:45.808Z,7.67
2017-03-21T17:33:07.354Z,7.58
2017-03-21T17:34:29.228Z,7.52
2017-03-21T17:35:51.455Z,7.35
2017-03-21T17:37:14.166Z,7.3
2017-03-21T17:38:36.357Z,7.32
2017-03-21T17:39:58.211Z,7.3
2017-03-21T17:41:20.054Z,7.21
2017-03-21T17:42:42.490Z,7.17
2017-03-21T17:44:03.876Z,7.13
2017-03-21T17:45:26.437Z,7.12
2017-03-21T17:46:48.733Z,7.02
2017-03-21T17:48:11.442Z,6.91
2017-03-21T17:49:34.247Z,6.91
2017-03-21T17:50:56.752Z,6.87
2017-03-21T17:52:18.939Z,6.77
2017-03-21T17:53:41.117Z,6.84
2017-03-21T17:55:03.607Z,6.8
2017-03-21T17:56:26.148Z,6.84
2017-03-21T17:57:48.602Z,6.69
2017-03-21T17:59:11.105Z,6.73
2017-03-21T18:00:33.653Z,6.69
2017-03-21T18:01:55.896Z,6.56
2017-03-21T18:03:18.082Z,6.54
2017-03-21T18:04:40.644Z,6.54
2017-03-21T18:06:03.136Z,6.54